Time;durP1;ratioP1;P1;durP2;ratioP2;P2;SDS_P1;SDS_P2;PMS_P1;PMS_P2;Temp;Humidity;BMP_temperature;BMP_pressure;BME280_temperature;BME280_humidity;BME280_pressure;Samples;Min_cycle;Max_cycle;Signal;HPM_P1;HPM_P2
2024/02/05 00:05:47;;;;;;;1.6;0.8;;;;;;;5.34;91.39;98131.666666667;;;;
2024/02/05 00:16:47;;;;;;;1.6;0.8;;;;;;;5.46;91.29;98121.666666667;;;;
2024/02/05 00:26:47;;;;;;;3.4;1.6;;;;;;;5.51;91.45;98111.666666667;;;;
2024/02/05 00:37:47;;;;;;;3.4;1.6;;;;;;;5.53;91.48;98105;;;;
2024/02/05 00:48:47;;;;;;;5.4;2.7;;;;;;;5.68;91;98111.666666667;;;;
2024/02/05 00:59:47;;;;;;;5.4;2.7;;;;;;;5.45;89.57;98101.666666667;;;;
2024/02/05 01:09:47;;;;;;;5.4;2.7;;;;;;;5.37;90.3;98090;;;;
2024/02/05 01:19:51;;;;;;;2.1;0.8;;;;;;;5.39;89.9;98075;;;;
2024/02/05 01:30:47;;;;;;;2.1;0.8;;;;;;;5.33;90.6;98063.333333333;;;;
2024/02/05 01:41:47;;;;;;;2.1;0.8;;;;;;;5.34;90.55;98048.333333333;;;;
2024/02/05 01:52:47;;;;;;;3.3;1.5;;;;;;;5.36;90.82;98036.666666667;;;;
2024/02/05 02:02:47;;;;;;;3.3;1.5;;;;;;;5.43;90.25;98013.333333333;;;;
2024/02/05 02:12:47;;;;;;;3.3;1.5;;;;;;;5.24;88.89;98003.333333333;;;;
2024/02/05 02:22:48;;;;;;;3.9;1.4;;;;;;;5.15;89.47;97993.333333333;;;;
2024/02/05 02:33:47;;;;;;;3.9;1.4;;;;;;;5.14;90.76;97980;;;;
2024/02/05 02:43:47;;;;;;;3.9;1.4;;;;;;;5.23;90.93;97968.333333333;;;;
2024/02/05 02:54:47;;;;;;;2.9;1.1;;;;;;;5.25;91.35;97955;;;;
2024/02/05 03:05:47;;;;;;;2.9;1.1;;;;;;;5.31;91.51;97921.666666667;;;;
2024/02/05 03:15:47;;;;;;;2.9;1.1;;;;;;;5.5;91.22;97896.666666667;;;;
2024/02/05 03:25:49;;;;;;;3;1.5;;;;;;;5.6;90.95;97886.666666667;;;;
2024/02/05 03:35:47;;;;;;;3;1.5;;;;;;;5.66;90.83;97866.666666667;;;;
2024/02/05 03:46:47;;;;;;;3;1.5;;;;;;;5.64;91.07;97850;;;;
2024/02/05 03:57:47;;;;;;;;;;;;;;;;;97826;;;;
2024/02/05 04:07:47;;;;;;;;;;;;;;;;;97816;;;;
2024/02/05 04:18:47;;;;;;;;;;;;;;;;;97786;;;;
2024/02/05 04:28:47;;;;;;;;;;;;;;;;;97774;;;;
2024/02/05 04:39:47;;;;;;;;;;;;;;;;;97736;;;;
2024/02/05 04:50:47;;;;;;;;;;;;;;;;;97714;;;;
2024/02/05 05:00:47;;;;;;;;;;;;;;;;;97696;;;;
2024/02/05 05:10:47;;;;;;;;;;;;;;;;;97688;;;;
2024/02/05 05:21:47;;;;;;;;;;;;;;;;;97674;;;;
2024/02/05 05:31:47;;;;;;;;;;;;;;;;;97676;;;;
2024/02/05 05:41:47;;;;;;;;;;;;;;;;;97660;;;;
2024/02/05 05:52:47;;;;;;;;;;;;;;;8.75;88.16;97668;;;;
2024/02/05 06:03:47;;;;;;;2.6;1.1;;;;;;;8.82;87.95;97692;;;;
2024/02/05 06:14:47;;;;;;;2.6;1.1;;;;;;;8.88;88.11;97675;;;;
2024/02/05 06:24:47;;;;;;;2.6;1.1;;;;;;;8.86;88.56;97685;;;;
2024/02/05 06:34:49;;;;;;;4.2;2.4;;;;;;;8.9;88.45;97693.333333333;;;;
2024/02/05 06:45:47;;;;;;;4.2;2.4;;;;;;;8.86;88.81;97686.666666667;;;;
2024/02/05 06:55:47;;;;;;;4.2;2.4;;;;;;;8.99;88.41;97718.333333333;;;;
2024/02/05 07:06:47;;;;;;;3.1;1.7;;;;;;;9.07;88.66;97718.333333333;;;;
2024/02/05 07:17:47;;;;;;;3.1;1.7;;;;;;;9.26;87.26;97726.666666667;;;;
2024/02/05 07:28:47;;;;;;;4.5;2.3;;;;;;;9.27;87.83;97738.333333333;;;;
2024/02/05 07:39:47;;;;;;;4.5;2.3;;;;;;;9.23;88.47;97748.333333333;;;;
2024/02/05 07:49:47;;;;;;;4.5;2.3;;;;;;;9.31;87.89;97776.666666667;;;;
2024/02/05 08:00:47;;;;;;;4.2;1.7;;;;;;;9.23;89.22;97796.666666667;;;;
2024/02/05 08:11:47;;;;;;;4.2;1.7;;;;;;;9.13;89.11;97808.333333333;;;;
2024/02/05 08:21:47;;;;;;;4.2;1.7;;;;;;;9.1;89.8;97830;;;;
2024/02/05 08:31:47;;;;;;;3.7;1.5;;;;;;;9.03;89.87;97838.333333333;;;;
2024/02/05 08:41:47;;;;;;;3.7;1.5;;;;;;;9.12;89.17;97841.666666667;;;;
2024/02/05 08:52:47;;;;;;;3.7;1.5;;;;;;;9.11;89.91;97866.666666667;;;;
2024/02/05 09:02:48;;;;;;;3.4;1.5;;;;;;;9.08;90.36;97878.333333333;;;;
2024/02/05 09:13:47;;;;;;;3.4;1.5;;;;;;;9.03;90.35;97881.666666667;;;;
2024/02/05 09:23:47;;;;;;;3.4;1.5;;;;;;;9.11;90.41;97891.666666667;;;;
2024/02/05 09:33:48;;;;;;;3.4;1.7;;;;;;;9.1;90.45;97895;;;;
2024/02/05 09:44:47;;;;;;;3.4;1.7;;;;;;;9.14;90.1;97898.333333333;;;;
2024/02/05 09:55:47;;;;;;;3.4;1.7;;;;;;;9.2;89.82;97886.666666667;;;;
2024/02/05 10:06:47;;;;;;;3.8;1.9;;;;;;;9.28;89.61;97875;;;;
2024/02/05 10:17:47;;;;;;;3.8;1.9;;;;;;;9.18;90.4;97888.333333333;;;;
2024/02/05 10:28:47;;;;;;;3.5;1.4;;;;;;;9.2;90.59;97875;;;;
2024/02/05 10:38:47;;;;;;;3.5;1.4;;;;;;;9.33;89.86;97875;;;;
2024/02/05 10:49:47;;;;;;;3.5;1.4;;;;;;;9.37;88.85;97875;;;;
2024/02/05 10:59:47;;;;;;;3.4;1.4;;;;;;;9.47;88.73;97868.333333333;;;;
2024/02/05 11:09:47;;;;;;;3.4;1.4;;;;;;;9.45;88.4;97858.333333333;;;;
2024/02/05 11:20:47;;;;;;;3.4;1.4;;;;;;;9.49;88.58;97866.666666667;;;;
2024/02/05 11:30:48;;;;;;;3.9;1.7;;;;;;;9.57;88.31;97875;;;;
2024/02/05 11:40:48;;;;;;;3.9;1.7;;;;;;;9.5;88.76;97878.333333333;;;;
2024/02/05 11:51:47;;;;;;;3.9;1.7;;;;;;;9.5;89.49;97881.666666667;;;;
2024/02/05 12:02:48;;;;;;;3.1;1.3;;;;;;;9.57;89.87;97890;;;;
2024/02/05 12:13:47;;;;;;;3.1;1.3;;;;;;;9.36;91.02;97895;;;;
2024/02/05 12:24:47;;;;;;;3.1;1.3;;;;;;;9.26;91.41;97890;;;;
2024/02/05 12:34:49;;;;;;;3.5;1.5;;;;;;;9.28;92.13;97893.333333333;;;;
2024/02/05 12:44:49;;;;;;;3.5;1.5;;;;;;;9.23;91.67;97888.333333333;;;;
2024/02/05 12:55:48;;;;;;;3.5;1.5;;;;;;;9.25;91.76;97896.666666667;;;;
2024/02/05 13:06:48;;;;;;;4.3;1.6;;;;;;;9.25;91.97;97900;;;;
2024/02/05 13:17:47;;;;;;;4.3;1.6;;;;;;;9.24;91.86;97895;;;;
2024/02/05 13:27:47;;;;;;;6.7;2.6;;;;;;;9.43;91.54;97901.666666667;;;;
2024/02/05 13:38:47;;;;;;;6.7;2.6;;;;;;;9.54;90.73;97918.333333333;;;;
2024/02/05 13:49:48;;;;;;;6.7;2.6;;;;;;;9.46;90.57;97940;;;;
2024/02/05 13:59:47;;;;;;;4.5;2.1;;;;;;;9.4;90.95;97951.666666667;;;;
2024/02/05 14:10:49;;;;;;;4.5;2.1;;;;;;;9.3;91.23;97973.333333333;;;;
2024/02/05 14:21:48;;;;;;;4.5;2.1;;;;;;;9.37;90.52;97976.666666667;;;;
2024/02/05 14:32:47;;;;;;;4.4;2;;;;;;;9.29;90.83;97986.666666667;;;;
2024/02/05 14:43:47;;;;;;;4.4;2;;;;;;;9.36;90.28;97983.333333333;;;;
2024/02/05 14:53:48;;;;;;;4.4;2;;;;;;;9.35;90;97995;;;;
2024/02/05 15:03:48;;;;;;;5.4;2.5;;;;;;;9.38;89.99;97998.333333333;;;;
2024/02/05 15:14:47;;;;;;;5.4;2.5;;;;;;;9.37;89.61;97990;;;;
2024/02/05 15:24:48;;;;;;;5.4;2.5;;;;;;;9.4;88.74;97993.333333333;;;;
2024/02/05 15:35:48;;;;;;;7.6;3.1;;;;;;;9.49;87.37;98006.666666667;;;;
2024/02/05 15:46:47;;;;;;;7.6;3.1;;;;;;;9.44;86.9;98016.666666667;;;;
2024/02/05 15:56:48;;;;;;;7.6;3.1;;;;;;;9.44;87.39;98035;;;;
2024/02/05 16:07:49;;;;;;;7.9;4.5;;;;;;;9.31;87.93;98046.666666667;;;;
2024/02/05 16:18:48;;;;;;;7.9;4.5;;;;;;;9.26;87.76;98065;;;;
2024/02/05 16:28:48;;;;;;;12.6;5.4;;;;;;;9.33;86.62;98065;;;;
2024/02/05 16:39:48;;;;;;;12.6;5.4;;;;;;;9.43;84.79;98076.666666667;;;;
2024/02/05 16:49:48;;;;;;;12.6;5.4;;;;;;;9.54;84.28;98093.333333333;;;;
2024/02/05 16:59:49;;;;;;;8.8;5.1;;;;;;;9.7;81.71;98100;;;;
2024/02/05 17:10:48;;;;;;;8.8;5.1;;;;;;;9.88;80.09;98105;;;;
2024/02/05 17:20:48;;;;;;;8.8;5.1;;;;;;;9.92;79.11;98083.333333333;;;;
2024/02/05 17:31:48;;;;;;;8.4;4.7;;;;;;;9.99;78.3;98091.666666667;;;;
2024/02/05 17:41:48;;;;;;;8.4;4.7;;;;;;;10.08;76.5;98078.333333333;;;;
2024/02/05 17:52:49;;;;;;;8.4;4.7;;;;;;;10.19;76.4;98073.333333333;;;;
2024/02/05 18:03:48;;;;;;;14.4;5.9;;;;;;;10.18;76.17;98073.333333333;;;;
2024/02/05 18:14:48;;;;;;;14.4;5.9;;;;;;;10.28;75.62;98076.666666667;;;;
2024/02/05 18:25:50;;;;;;;14.4;5.9;;;;;;;10.38;74.85;98066.666666667;;;;
2024/02/05 18:36:48;;;;;;;11.1;6.1;;;;;;;10.33;75.74;98078.333333333;;;;
2024/02/05 18:46:48;;;;;;;11.1;6.1;;;;;;;10.32;75.77;98081.666666667;;;;
2024/02/05 18:57:48;;;;;;;15.3;8.8;;;;;;;10.23;76.34;98066.666666667;;;;
2024/02/05 19:08:48;;;;;;;15.3;8.8;;;;;;;10.27;75.33;98066.666666667;;;;
2024/02/05 19:19:47;;;;;;;15.3;8.8;;;;;;;10.32;74.26;98070;;;;
2024/02/05 19:29:48;;;;;;;11.1;5.7;;;;;;;10.33;73.28;98078.333333333;;;;
2024/02/05 19:40:48;;;;;;;11.1;5.7;;;;;;;10.34;72.84;98065;;;;
2024/02/05 19:51:48;;;;;;;11.1;5.7;;;;;;;10.4;71.53;98066.666666667;;;;
2024/02/05 20:02:48;;;;;;;11.5;5.3;;;;;;;10.37;71.45;98068.333333333;;;;
2024/02/05 20:12:48;;;;;;;11.5;5.3;;;;;;;10.31;71.6;98056.666666667;;;;
2024/02/05 20:23:48;;;;;;;11.5;5.3;;;;;;;10.25;71.18;98050;;;;
2024/02/05 20:33:48;;;;;;;7.9;4;;;;;;;10.28;70.86;98053.333333333;;;;
2024/02/05 20:44:48;;;;;;;7.9;4;;;;;;;10.21;70.64;98048.333333333;;;;
2024/02/05 20:55:48;;;;;;;7.9;4;;;;;;;10.2;70.59;98045;;;;
2024/02/05 21:05:48;;;;;;;7.9;4.4;;;;;;;10.17;70.22;98053.333333333;;;;
2024/02/05 21:15:48;;;;;;;7.9;4.4;;;;;;;10.16;69.86;98056.666666667;;;;
2024/02/05 21:26:48;;;;;;;7.9;4.4;;;;;;;10.07;69.52;98056.666666667;;;;
2024/02/05 21:37:48;;;;;;;8.8;4;;;;;;;10.06;69.16;98056.666666667;;;;
2024/02/05 21:48:48;;;;;;;8.8;4;;;;;;;10.06;68.87;98046.666666667;;;;
2024/02/05 21:58:48;;;;;;;11;4.2;;;;;;;10.08;68.56;98043.333333333;;;;
2024/02/05 22:08:48;;;;;;;11;4.2;;;;;;;10.1;68.04;98036.666666667;;;;
2024/02/05 22:19:48;;;;;;;11;4.2;;;;;;;10.2;67.09;98045;;;;
2024/02/05 22:30:48;;;;;;;8.7;3.8;;;;;;;10.2;66.69;98063.333333333;;;;
2024/02/05 22:40:48;;;;;;;8.7;3.8;;;;;;;10.23;66.47;98066.666666667;;;;
2024/02/05 22:51:48;;;;;;;8.7;3.8;;;;;;;10.21;65.78;98076.666666667;;;;
2024/02/05 23:01:48;;;;;;;6.4;3.4;;;;;;;10.17;66.23;98078.333333333;;;;
2024/02/05 23:12:48;;;;;;;6.4;3.4;;;;;;;10.17;66.18;98083.333333333;;;;
2024/02/05 23:22:48;;;;;;;6.4;3.4;;;;;;;10.17;65.52;98075;;;;
2024/02/05 23:33:50;;;;;;;6.4;3;;;;;;;10.12;66.17;98078.333333333;;;;
2024/02/05 23:44:48;;;;;;;6.4;3;;;;;;;10.08;65.75;98083.333333333;;;;
2024/02/05 23:55:48;;;;;;;6.4;3;;;;;;;10.05;66.21;98085;;;;
